sensor_id;sensor_type;location;lat;lon;timestamp;P1;durP1;ratioP1;P2;durP2;ratioP2
4051;SDS011;2040;50.924;11.604;2023-04-12T00:02:06;3.57;;;1.90;;
4051;SDS011;2040;50.924;11.604;2023-04-12T00:04:32;2.23;;;1.50;;
4051;SDS011;2040;50.924;11.604;2023-04-12T00:06:59;2.63;;;2.07;;
4051;SDS011;2040;50.924;11.604;2023-04-12T00:09:26;10.17;;;2.40;;
4051;SDS011;2040;50.924;11.604;2023-04-12T00:11:57;3.70;;;1.93;;
4051;SDS011;2040;50.924;11.604;2023-04-12T00:14:23;2.03;;;1.83;;
4051;SDS011;2040;50.924;11.604;2023-04-12T00:16:53;2.40;;;2.20;;
4051;SDS011;2040;50.924;11.604;2023-04-12T00:19:18;3.90;;;2.27;;
4051;SDS011;2040;50.924;11.604;2023-04-12T00:21:44;3.53;;;1.77;;
4051;SDS011;2040;50.924;11.604;2023-04-12T00:24:10;4.60;;;2.20;;
4051;SDS011;2040;50.924;11.604;2023-04-12T00:26:35;3.20;;;1.87;;
4051;SDS011;2040;50.924;11.604;2023-04-12T00:29:01;6.00;;;2.73;;
4051;SDS011;2040;50.924;11.604;2023-04-12T00:31:27;3.70;;;1.53;;
4051;SDS011;2040;50.924;11.604;2023-04-12T00:33:53;2.97;;;2.10;;
4051;SDS011;2040;50.924;11.604;2023-04-12T00:36:18;3.77;;;2.47;;
4051;SDS011;2040;50.924;11.604;2023-04-12T00:38:44;6.23;;;1.93;;
4051;SDS011;2040;50.924;11.604;2023-04-12T00:41:10;4.63;;;2.13;;
4051;SDS011;2040;50.924;11.604;2023-04-12T00:43:36;2.57;;;1.90;;
4051;SDS011;2040;50.924;11.604;2023-04-12T00:46:03;8.40;;;1.70;;
4051;SDS011;2040;50.924;11.604;2023-04-12T00:48:29;1.93;;;1.60;;
4051;SDS011;2040;50.924;11.604;2023-04-12T00:50:55;5.80;;;2.10;;
4051;SDS011;2040;50.924;11.604;2023-04-12T00:53:21;2.33;;;1.90;;
4051;SDS011;2040;50.924;11.604;2023-04-12T00:55:48;6.93;;;2.87;;
4051;SDS011;2040;50.924;11.604;2023-04-12T00:58:14;1.70;;;1.60;;
4051;SDS011;2040;50.924;11.604;2023-04-12T01:00:41;5.47;;;2.17;;
4051;SDS011;2040;50.924;11.604;2023-04-12T01:03:20;3.67;;;2.20;;
4051;SDS011;2040;50.924;11.604;2023-04-12T01:05:49;4.20;;;1.60;;
4051;SDS011;2040;50.924;11.604;2023-04-12T01:08:42;2.43;;;1.70;;
4051;SDS011;2040;50.924;11.604;2023-04-12T01:16:53;2.60;;;1.50;;
4051;SDS011;2040;50.924;11.604;2023-04-12T01:19:36;2.70;;;1.77;;
4051;SDS011;2040;50.924;11.604;2023-04-12T01:22:36;3.03;;;1.80;;
4051;SDS011;2040;50.924;11.604;2023-04-12T01:25:39;4.30;;;1.90;;
4051;SDS011;2040;50.924;11.604;2023-04-12T01:28:33;2.27;;;1.50;;
4051;SDS011;2040;50.924;11.604;2023-04-12T01:31:02;1.27;;;1.17;;
4051;SDS011;2040;50.924;11.604;2023-04-12T01:33:30;4.97;;;1.90;;
4051;SDS011;2040;50.924;11.604;2023-04-12T01:36:01;5.10;;;2.13;;
4051;SDS011;2040;50.924;11.604;2023-04-12T01:38:30;11.53;;;2.43;;
4051;SDS011;2040;50.924;11.604;2023-04-12T01:40:57;2.20;;;1.90;;
4051;SDS011;2040;50.924;11.604;2023-04-12T01:43:23;3.07;;;1.50;;
4051;SDS011;2040;50.924;11.604;2023-04-12T01:45:49;2.90;;;1.70;;
4051;SDS011;2040;50.924;11.604;2023-04-12T01:48:14;6.10;;;2.20;;
4051;SDS011;2040;50.924;11.604;2023-04-12T01:53:22;2.33;;;1.60;;
4051;SDS011;2040;50.924;11.604;2023-04-12T01:55:51;4.43;;;2.60;;
4051;SDS011;2040;50.924;11.604;2023-04-12T01:58:22;2.37;;;1.77;;
4051;SDS011;2040;50.924;11.604;2023-04-12T02:00:49;7.27;;;2.23;;
4051;SDS011;2040;50.924;11.604;2023-04-12T02:03:17;3.03;;;1.93;;
4051;SDS011;2040;50.924;11.604;2023-04-12T02:05:45;2.70;;;1.67;;
4051;SDS011;2040;50.924;11.604;2023-04-12T02:08:11;2.20;;;1.43;;
4051;SDS011;2040;50.924;11.604;2023-04-12T02:10:37;3.30;;;2.00;;
4051;SDS011;2040;50.924;11.604;2023-04-12T02:13:04;2.40;;;1.90;;
4051;SDS011;2040;50.924;11.604;2023-04-12T02:15:30;4.00;;;1.63;;
4051;SDS011;2040;50.924;11.604;2023-04-12T02:17:56;4.97;;;1.90;;
4051;SDS011;2040;50.924;11.604;2023-04-12T02:20:23;8.13;;;2.07;;
4051;SDS011;2040;50.924;11.604;2023-04-12T02:22:49;1.70;;;1.50;;
4051;SDS011;2040;50.924;11.604;2023-04-12T02:25:15;2.53;;;1.53;;
4051;SDS011;2040;50.924;11.604;2023-04-12T02:27:44;3.40;;;1.87;;
4051;SDS011;2040;50.924;11.604;2023-04-12T02:30:10;2.93;;;1.50;;
4051;SDS011;2040;50.924;11.604;2023-04-12T02:32:36;9.43;;;2.30;;
4051;SDS011;2040;50.924;11.604;2023-04-12T02:35:07;1.70;;;1.37;;
4051;SDS011;2040;50.924;11.604;2023-04-12T02:37:34;3.53;;;1.60;;
4051;SDS011;2040;50.924;11.604;2023-04-12T02:40:00;2.13;;;1.60;;
4051;SDS011;2040;50.924;11.604;2023-04-12T02:42:28;1.83;;;1.23;;
4051;SDS011;2040;50.924;11.604;2023-04-12T02:44:54;1.57;;;1.13;;
4051;SDS011;2040;50.924;11.604;2023-04-12T02:47:19;1.57;;;1.20;;
4051;SDS011;2040;50.924;11.604;2023-04-12T02:49:45;5.17;;;2.47;;
4051;SDS011;2040;50.924;11.604;2023-04-12T02:52:11;5.80;;;1.53;;
4051;SDS011;2040;50.924;11.604;2023-04-12T02:54:36;3.53;;;1.70;;
4051;SDS011;2040;50.924;11.604;2023-04-12T02:57:02;5.43;;;2.30;;
4051;SDS011;2040;50.924;11.604;2023-04-12T02:59:28;3.43;;;1.80;;
4051;SDS011;2040;50.924;11.604;2023-04-12T03:01:53;3.73;;;1.50;;
4051;SDS011;2040;50.924;11.604;2023-04-12T03:04:19;3.33;;;1.30;;
4051;SDS011;2040;50.924;11.604;2023-04-12T03:06:46;1.57;;;1.23;;
4051;SDS011;2040;50.924;11.604;2023-04-12T03:09:18;1.90;;;1.40;;
4051;SDS011;2040;50.924;11.604;2023-04-12T03:11:44;2.90;;;1.63;;
4051;SDS011;2040;50.924;11.604;2023-04-12T03:14:10;1.30;;;1.20;;
4051;SDS011;2040;50.924;11.604;2023-04-12T03:16:35;1.20;;;1.07;;
4051;SDS011;2040;50.924;11.604;2023-04-12T03:19:01;3.00;;;1.50;;
4051;SDS011;2040;50.924;11.604;2023-04-12T03:21:27;3.83;;;1.63;;
4051;SDS011;2040;50.924;11.604;2023-04-12T03:23:53;5.30;;;1.80;;
4051;SDS011;2040;50.924;11.604;2023-04-12T03:26:18;5.73;;;1.33;;
4051;SDS011;2040;50.924;11.604;2023-04-12T03:28:44;2.07;;;1.83;;
4051;SDS011;2040;50.924;11.604;2023-04-12T03:31:11;2.63;;;1.80;;
4051;SDS011;2040;50.924;11.604;2023-04-12T03:33:37;3.70;;;1.97;;
4051;SDS011;2040;50.924;11.604;2023-04-12T03:36:03;1.70;;;1.60;;
4051;SDS011;2040;50.924;11.604;2023-04-12T03:38:29;2.20;;;1.17;;
4051;SDS011;2040;50.924;11.604;2023-04-12T03:40:55;4.43;;;1.27;;
4051;SDS011;2040;50.924;11.604;2023-04-12T03:43:21;1.60;;;1.47;;
4051;SDS011;2040;50.924;11.604;2023-04-12T03:45:46;4.93;;;1.83;;
4051;SDS011;2040;50.924;11.604;2023-04-12T03:48:12;2.13;;;1.67;;
4051;SDS011;2040;50.924;11.604;2023-04-12T03:50:38;2.27;;;1.60;;
4051;SDS011;2040;50.924;11.604;2023-04-12T03:53:12;1.93;;;1.30;;
4051;SDS011;2040;50.924;11.604;2023-04-12T03:55:38;2.20;;;1.40;;
4051;SDS011;2040;50.924;11.604;2023-04-12T03:58:04;3.70;;;1.70;;
4051;SDS011;2040;50.924;11.604;2023-04-12T04:00:30;3.47;;;1.80;;
4051;SDS011;2040;50.924;11.604;2023-04-12T04:02:56;1.83;;;1.53;;
4051;SDS011;2040;50.924;11.604;2023-04-12T04:05:27;1.43;;;1.27;;
4051;SDS011;2040;50.924;11.604;2023-04-12T04:07:54;2.30;;;1.57;;
4051;SDS011;2040;50.924;11.604;2023-04-12T04:10:20;1.90;;;1.70;;
4051;SDS011;2040;50.924;11.604;2023-04-12T04:12:46;4.40;;;1.87;;
4051;SDS011;2040;50.924;11.604;2023-04-12T04:15:13;3.03;;;1.97;;
4051;SDS011;2040;50.924;11.604;2023-04-12T04:17:39;2.13;;;1.80;;
4051;SDS011;2040;50.924;11.604;2023-04-12T04:20:06;4.10;;;1.70;;
4051;SDS011;2040;50.924;11.604;2023-04-12T04:22:33;2.20;;;1.60;;
4051;SDS011;2040;50.924;11.604;2023-04-12T04:24:59;2.50;;;1.27;;
4051;SDS011;2040;50.924;11.604;2023-04-12T04:27:26;3.13;;;1.67;;
4051;SDS011;2040;50.924;11.604;2023-04-12T04:29:54;2.17;;;1.97;;
4051;SDS011;2040;50.924;11.604;2023-04-12T04:32:23;1.43;;;1.33;;
4051;SDS011;2040;50.924;11.604;2023-04-12T04:34:49;4.20;;;1.50;;
4051;SDS011;2040;50.924;11.604;2023-04-12T04:37:15;5.23;;;1.70;;
4051;SDS011;2040;50.924;11.604;2023-04-12T04:39:42;2.13;;;1.67;;
4051;SDS011;2040;50.924;11.604;2023-04-12T04:42:08;5.20;;;1.90;;
4051;SDS011;2040;50.924;11.604;2023-04-12T04:44:33;3.13;;;1.90;;
4051;SDS011;2040;50.924;11.604;2023-04-12T04:46:59;8.53;;;1.50;;
4051;SDS011;2040;50.924;11.604;2023-04-12T04:49:25;6.50;;;1.87;;
4051;SDS011;2040;50.924;11.604;2023-04-12T04:51:51;1.80;;;1.57;;
4051;SDS011;2040;50.924;11.604;2023-04-12T04:54:17;3.40;;;1.57;;
4051;SDS011;2040;50.924;11.604;2023-04-12T04:56:42;3.00;;;1.60;;
4051;SDS011;2040;50.924;11.604;2023-04-12T04:59:08;3.17;;;1.50;;
4051;SDS011;2040;50.924;11.604;2023-04-12T05:01:33;3.60;;;1.67;;
4051;SDS011;2040;50.924;11.604;2023-04-12T05:04:00;1.70;;;1.60;;
4051;SDS011;2040;50.924;11.604;2023-04-12T05:06:26;4.10;;;2.00;;
4051;SDS011;2040;50.924;11.604;2023-04-12T05:08:52;2.50;;;1.60;;
4051;SDS011;2040;50.924;11.604;2023-04-12T05:11:18;7.50;;;2.27;;
4051;SDS011;2040;50.924;11.604;2023-04-12T05:13:44;2.13;;;1.70;;
4051;SDS011;2040;50.924;11.604;2023-04-12T05:16:10;8.73;;;1.83;;
4051;SDS011;2040;50.924;11.604;2023-04-12T05:18:35;4.47;;;1.80;;
4051;SDS011;2040;50.924;11.604;2023-04-12T05:21:04;5.77;;;1.57;;
4051;SDS011;2040;50.924;11.604;2023-04-12T05:23:36;3.30;;;1.60;;
4051;SDS011;2040;50.924;11.604;2023-04-12T05:26:06;1.53;;;1.30;;
4051;SDS011;2040;50.924;11.604;2023-04-12T05:28:31;3.00;;;1.73;;
4051;SDS011;2040;50.924;11.604;2023-04-12T05:30:57;2.17;;;1.70;;
4051;SDS011;2040;50.924;11.604;2023-04-12T05:33:22;2.87;;;1.67;;
4051;SDS011;2040;50.924;11.604;2023-04-12T05:35:48;2.20;;;1.20;;
4051;SDS011;2040;50.924;11.604;2023-04-12T05:38:13;5.73;;;2.50;;
4051;SDS011;2040;50.924;11.604;2023-04-12T05:40:39;2.93;;;1.70;;
4051;SDS011;2040;50.924;11.604;2023-04-12T05:43:06;3.37;;;1.80;;
4051;SDS011;2040;50.924;11.604;2023-04-12T05:45:31;4.73;;;2.37;;
4051;SDS011;2040;50.924;11.604;2023-04-12T05:47:57;3.67;;;1.97;;
4051;SDS011;2040;50.924;11.604;2023-04-12T05:50:22;5.67;;;2.67;;
4051;SDS011;2040;50.924;11.604;2023-04-12T05:52:49;5.10;;;2.53;;
4051;SDS011;2040;50.924;11.604;2023-04-12T05:55:15;11.87;;;2.90;;
4051;SDS011;2040;50.924;11.604;2023-04-12T05:57:43;3.23;;;2.30;;
4051;SDS011;2040;50.924;11.604;2023-04-12T06:00:09;6.60;;;2.63;;
4051;SDS011;2040;50.924;11.604;2023-04-12T06:02:41;4.30;;;2.63;;
4051;SDS011;2040;50.924;11.604;2023-04-12T06:05:10;8.43;;;3.40;;
4051;SDS011;2040;50.924;11.604;2023-04-12T06:07:37;4.77;;;2.83;;
4051;SDS011;2040;50.924;11.604;2023-04-12T06:10:04;6.37;;;3.50;;
4051;SDS011;2040;50.924;11.604;2023-04-12T06:12:31;2.90;;;2.30;;
4051;SDS011;2040;50.924;11.604;2023-04-12T06:14:56;23.17;;;3.57;;
4051;SDS011;2040;50.924;11.604;2023-04-12T06:17:22;5.17;;;2.63;;
4051;SDS011;2040;50.924;11.604;2023-04-12T06:19:48;3.33;;;2.60;;
4051;SDS011;2040;50.924;11.604;2023-04-12T06:22:14;11.17;;;2.90;;
4051;SDS011;2040;50.924;11.604;2023-04-12T06:24:39;8.93;;;3.17;;
4051;SDS011;2040;50.924;11.604;2023-04-12T06:27:05;5.90;;;3.20;;
4051;SDS011;2040;50.924;11.604;2023-04-12T06:29:31;5.00;;;2.90;;
4051;SDS011;2040;50.924;11.604;2023-04-12T06:31:56;5.37;;;3.50;;
4051;SDS011;2040;50.924;11.604;2023-04-12T06:34:22;3.93;;;2.53;;
4051;SDS011;2040;50.924;11.604;2023-04-12T06:36:48;5.80;;;2.80;;
4051;SDS011;2040;50.924;11.604;2023-04-12T06:39:13;8.17;;;2.90;;
4051;SDS011;2040;50.924;11.604;2023-04-12T06:41:40;6.00;;;2.10;;
4051;SDS011;2040;50.924;11.604;2023-04-12T06:44:11;5.73;;;2.03;;
4051;SDS011;2040;50.924;11.604;2023-04-12T06:46:37;5.33;;;1.67;;
4051;SDS011;2040;50.924;11.604;2023-04-12T06:49:02;2.43;;;1.77;;
4051;SDS011;2040;50.924;11.604;2023-04-12T06:51:28;2.97;;;2.10;;
4051;SDS011;2040;50.924;11.604;2023-04-12T06:53:54;4.60;;;1.57;;
4051;SDS011;2040;50.924;11.604;2023-04-12T06:56:21;1.20;;;1.00;;
4051;SDS011;2040;50.924;11.604;2023-04-12T06:58:47;9.50;;;2.60;;
4051;SDS011;2040;50.924;11.604;2023-04-12T07:01:13;7.60;;;2.40;;
4051;SDS011;2040;50.924;11.604;2023-04-12T07:03:38;2.77;;;1.20;;
4051;SDS011;2040;50.924;11.604;2023-04-12T07:06:04;3.67;;;1.57;;
4051;SDS011;2040;50.924;11.604;2023-04-12T07:08:34;2.07;;;1.37;;
4051;SDS011;2040;50.924;11.604;2023-04-12T07:11:00;4.77;;;2.00;;
4051;SDS011;2040;50.924;11.604;2023-04-12T07:13:26;4.40;;;1.77;;
4051;SDS011;2040;50.924;11.604;2023-04-12T07:15:52;8.90;;;2.50;;
4051;SDS011;2040;50.924;11.604;2023-04-12T07:18:18;1.50;;;1.40;;
4051;SDS011;2040;50.924;11.604;2023-04-12T07:20:45;4.17;;;1.47;;
4051;SDS011;2040;50.924;11.604;2023-04-12T07:23:14;2.10;;;1.37;;
4051;SDS011;2040;50.924;11.604;2023-04-12T07:25:41;5.00;;;1.80;;
4051;SDS011;2040;50.924;11.604;2023-04-12T07:28:06;4.70;;;1.87;;
4051;SDS011;2040;50.924;11.604;2023-04-12T07:30:32;3.07;;;1.60;;
4051;SDS011;2040;50.924;11.604;2023-04-12T07:32:57;5.37;;;1.53;;
4051;SDS011;2040;50.924;11.604;2023-04-12T07:35:25;2.30;;;1.40;;
4051;SDS011;2040;50.924;11.604;2023-04-12T07:37:51;1.93;;;1.30;;
4051;SDS011;2040;50.924;11.604;2023-04-12T07:40:17;5.50;;;1.57;;
4051;SDS011;2040;50.924;11.604;2023-04-12T07:42:43;5.47;;;1.57;;
4051;SDS011;2040;50.924;11.604;2023-04-12T07:45:08;6.13;;;2.00;;
4051;SDS011;2040;50.924;11.604;2023-04-12T07:47:34;1.93;;;1.10;;
4051;SDS011;2040;50.924;11.604;2023-04-12T07:50:00;2.47;;;1.60;;
4051;SDS011;2040;50.924;11.604;2023-04-12T07:52:26;4.43;;;1.60;;
4051;SDS011;2040;50.924;11.604;2023-04-12T07:54:51;1.53;;;1.03;;
4051;SDS011;2040;50.924;11.604;2023-04-12T07:57:18;10.27;;;1.90;;
4051;SDS011;2040;50.924;11.604;2023-04-12T07:59:44;6.73;;;1.60;;
4051;SDS011;2040;50.924;11.604;2023-04-12T08:02:09;10.43;;;1.87;;
4051;SDS011;2040;50.924;11.604;2023-04-12T08:04:35;6.80;;;1.90;;
4051;SDS011;2040;50.924;11.604;2023-04-12T08:07:00;3.40;;;1.77;;
4051;SDS011;2040;50.924;11.604;2023-04-12T08:09:26;2.60;;;1.57;;
4051;SDS011;2040;50.924;11.604;2023-04-12T08:11:52;2.40;;;1.43;;
4051;SDS011;2040;50.924;11.604;2023-04-12T08:14:18;5.23;;;1.77;;
4051;SDS011;2040;50.924;11.604;2023-04-12T08:16:44;6.07;;;1.93;;
4051;SDS011;2040;50.924;11.604;2023-04-12T08:19:10;6.77;;;1.60;;
4051;SDS011;2040;50.924;11.604;2023-04-12T08:21:35;5.60;;;2.17;;
4051;SDS011;2040;50.924;11.604;2023-04-12T08:24:01;3.53;;;1.63;;
4051;SDS011;2040;50.924;11.604;2023-04-12T08:26:27;2.30;;;1.30;;
4051;SDS011;2040;50.924;11.604;2023-04-12T08:28:53;4.57;;;1.70;;
4051;SDS011;2040;50.924;11.604;2023-04-12T08:31:21;4.53;;;1.80;;
4051;SDS011;2040;50.924;11.604;2023-04-12T08:33:47;3.63;;;1.53;;
4051;SDS011;2040;50.924;11.604;2023-04-12T08:36:13;5.93;;;1.20;;
4051;SDS011;2040;50.924;11.604;2023-04-12T08:38:39;1.80;;;1.17;;
4051;SDS011;2040;50.924;11.604;2023-04-12T08:41:05;2.90;;;1.10;;
4051;SDS011;2040;50.924;11.604;2023-04-12T08:43:31;6.20;;;1.27;;
4051;SDS011;2040;50.924;11.604;2023-04-12T08:45:58;1.60;;;1.03;;
4051;SDS011;2040;50.924;11.604;2023-04-12T08:48:25;1.90;;;1.10;;
4051;SDS011;2040;50.924;11.604;2023-04-12T08:50:53;2.60;;;1.30;;
4051;SDS011;2040;50.924;11.604;2023-04-12T08:53:20;1.67;;;1.30;;
4051;SDS011;2040;50.924;11.604;2023-04-12T08:55:46;1.80;;;1.10;;
4051;SDS011;2040;50.924;11.604;2023-04-12T08:58:15;2.77;;;1.40;;
4051;SDS011;2040;50.924;11.604;2023-04-12T09:00:41;2.53;;;1.63;;
4051;SDS011;2040;50.924;11.604;2023-04-12T09:03:07;2.13;;;1.10;;
4051;SDS011;2040;50.924;11.604;2023-04-12T09:05:34;1.07;;;0.73;;
4051;SDS011;2040;50.924;11.604;2023-04-12T09:08:00;1.20;;;0.97;;
4051;SDS011;2040;50.924;11.604;2023-04-12T09:10:30;1.83;;;1.10;;
4051;SDS011;2040;50.924;11.604;2023-04-12T09:13:03;5.77;;;1.43;;
4051;SDS011;2040;50.924;11.604;2023-04-12T09:15:29;1.67;;;1.00;;
4051;SDS011;2040;50.924;11.604;2023-04-12T09:18:08;3.40;;;1.30;;
4051;SDS011;2040;50.924;11.604;2023-04-12T09:20:36;4.40;;;1.20;;
4051;SDS011;2040;50.924;11.604;2023-04-12T09:23:16;6.10;;;1.27;;
4051;SDS011;2040;50.924;11.604;2023-04-12T09:25:43;3.70;;;1.47;;
4051;SDS011;2040;50.924;11.604;2023-04-12T09:28:23;1.30;;;1.00;;
4051;SDS011;2040;50.924;11.604;2023-04-12T09:30:51;2.57;;;1.40;;
4051;SDS011;2040;50.924;11.604;2023-04-12T09:33:18;1.83;;;1.20;;
4051;SDS011;2040;50.924;11.604;2023-04-12T09:35:45;3.90;;;1.10;;
4051;SDS011;2040;50.924;11.604;2023-04-12T09:38:11;4.80;;;1.23;;
4051;SDS011;2040;50.924;11.604;2023-04-12T09:40:37;1.40;;;1.30;;
4051;SDS011;2040;50.924;11.604;2023-04-12T09:43:05;1.40;;;1.00;;
4051;SDS011;2040;50.924;11.604;2023-04-12T09:45:33;2.93;;;1.10;;
4051;SDS011;2040;50.924;11.604;2023-04-12T09:48:01;3.80;;;1.30;;
4051;SDS011;2040;50.924;11.604;2023-04-12T09:50:28;2.47;;;1.20;;
4051;SDS011;2040;50.924;11.604;2023-04-12T09:52:55;2.70;;;1.13;;
4051;SDS011;2040;50.924;11.604;2023-04-12T09:55:22;3.43;;;1.37;;
4051;SDS011;2040;50.924;11.604;2023-04-12T09:57:49;3.03;;;1.27;;
4051;SDS011;2040;50.924;11.604;2023-04-12T10:00:17;4.97;;;1.90;;
4051;SDS011;2040;50.924;11.604;2023-04-12T10:02:47;1.53;;;1.40;;
4051;SDS011;2040;50.924;11.604;2023-04-12T10:05:16;2.80;;;1.50;;
4051;SDS011;2040;50.924;11.604;2023-04-12T10:07:42;3.70;;;1.53;;
4051;SDS011;2040;50.924;11.604;2023-04-12T10:10:10;1.20;;;1.10;;
4051;SDS011;2040;50.924;11.604;2023-04-12T10:12:36;4.50;;;1.40;;
4051;SDS011;2040;50.924;11.604;2023-04-12T10:15:04;2.40;;;1.60;;
4051;SDS011;2040;50.924;11.604;2023-04-12T10:17:31;1.33;;;1.10;;
4051;SDS011;2040;50.924;11.604;2023-04-12T10:19:59;1.30;;;0.90;;
4051;SDS011;2040;50.924;11.604;2023-04-12T10:22:25;2.70;;;1.10;;
4051;SDS011;2040;50.924;11.604;2023-04-12T10:24:51;3.67;;;1.40;;
4051;SDS011;2040;50.924;11.604;2023-04-12T10:27:25;9.23;;;1.80;;
4051;SDS011;2040;50.924;11.604;2023-04-12T10:29:52;0.93;;;0.80;;
4051;SDS011;2040;50.924;11.604;2023-04-12T10:34:48;1.07;;;1.00;;
4051;SDS011;2040;50.924;11.604;2023-04-12T10:37:15;2.30;;;0.90;;
4051;SDS011;2040;50.924;11.604;2023-04-12T10:39:42;1.13;;;1.03;;
4051;SDS011;2040;50.924;11.604;2023-04-12T10:42:18;1.10;;;1.00;;
4051;SDS011;2040;50.924;11.604;2023-04-12T10:44:47;1.60;;;1.10;;
4051;SDS011;2040;50.924;11.604;2023-04-12T10:47:14;5.03;;;1.43;;
4051;SDS011;2040;50.924;11.604;2023-04-12T10:50:18;2.13;;;1.50;;
4051;SDS011;2040;50.924;11.604;2023-04-12T10:55:42;1.23;;;1.13;;
4051;SDS011;2040;50.924;11.604;2023-04-12T10:58:09;1.60;;;1.13;;
4051;SDS011;2040;50.924;11.604;2023-04-12T11:03:23;2.87;;;0.93;;
4051;SDS011;2040;50.924;11.604;2023-04-12T11:06:00;1.67;;;1.17;;
4051;SDS011;2040;50.924;11.604;2023-04-12T11:08:29;1.47;;;1.37;;
4051;SDS011;2040;50.924;11.604;2023-04-12T11:11:03;1.67;;;0.97;;
4051;SDS011;2040;50.924;11.604;2023-04-12T11:13:33;1.47;;;1.00;;
4051;SDS011;2040;50.924;11.604;2023-04-12T11:16:01;3.30;;;1.23;;
4051;SDS011;2040;50.924;11.604;2023-04-12T11:18:27;2.27;;;1.03;;
4051;SDS011;2040;50.924;11.604;2023-04-12T11:20:53;2.37;;;1.30;;
4051;SDS011;2040;50.924;11.604;2023-04-12T11:23:21;4.20;;;1.20;;
4051;SDS011;2040;50.924;11.604;2023-04-12T11:25:51;1.20;;;1.10;;
4051;SDS011;2040;50.924;11.604;2023-04-12T11:28:17;2.40;;;1.40;;
4051;SDS011;2040;50.924;11.604;2023-04-12T11:30:53;3.80;;;1.43;;
4051;SDS011;2040;50.924;11.604;2023-04-12T11:33:35;2.50;;;1.50;;
4051;SDS011;2040;50.924;11.604;2023-04-12T11:36:09;1.20;;;1.10;;
4051;SDS011;2040;50.924;11.604;2023-04-12T11:38:38;2.20;;;1.03;;
4051;SDS011;2040;50.924;11.604;2023-04-12T11:41:04;1.10;;;1.00;;
4051;SDS011;2040;50.924;11.604;2023-04-12T11:43:32;1.60;;;1.00;;
4051;SDS011;2040;50.924;11.604;2023-04-12T11:45:59;4.07;;;1.50;;
4051;SDS011;2040;50.924;11.604;2023-04-12T11:48:26;3.03;;;1.40;;
4051;SDS011;2040;50.924;11.604;2023-04-12T11:50:52;1.20;;;1.10;;
4051;SDS011;2040;50.924;11.604;2023-04-12T11:53:18;6.57;;;1.33;;
4051;SDS011;2040;50.924;11.604;2023-04-12T11:55:49;1.57;;;0.90;;
4051;SDS011;2040;50.924;11.604;2023-04-12T11:58:21;1.30;;;1.10;;
4051;SDS011;2040;50.924;11.604;2023-04-12T12:00:48;1.40;;;0.90;;
4051;SDS011;2040;50.924;11.604;2023-04-12T12:03:14;1.40;;;1.30;;
4051;SDS011;2040;50.924;11.604;2023-04-12T12:05:40;3.23;;;1.00;;
4051;SDS011;2040;50.924;11.604;2023-04-12T12:08:07;1.10;;;1.00;;
4051;SDS011;2040;50.924;11.604;2023-04-12T12:10:36;1.27;;;0.90;;
4051;SDS011;2040;50.924;11.604;2023-04-12T12:13:08;1.47;;;0.90;;
4051;SDS011;2040;50.924;11.604;2023-04-12T12:15:35;1.47;;;1.23;;
4051;SDS011;2040;50.924;11.604;2023-04-12T12:18:01;1.00;;;0.90;;
4051;SDS011;2040;50.924;11.604;2023-04-12T12:20:26;2.13;;;1.00;;
4051;SDS011;2040;50.924;11.604;2023-04-12T12:22:52;0.87;;;0.87;;
4051;SDS011;2040;50.924;11.604;2023-04-12T12:25:18;1.60;;;0.93;;
4051;SDS011;2040;50.924;11.604;2023-04-12T12:27:44;2.20;;;0.93;;
4051;SDS011;2040;50.924;11.604;2023-04-12T12:30:15;2.47;;;1.00;;
4051;SDS011;2040;50.924;11.604;2023-04-12T12:32:42;2.17;;;0.90;;
4051;SDS011;2040;50.924;11.604;2023-04-12T12:35:09;1.00;;;1.00;;
4051;SDS011;2040;50.924;11.604;2023-04-12T12:37:36;3.97;;;0.80;;
4051;SDS011;2040;50.924;11.604;2023-04-12T12:40:03;8.23;;;0.90;;
4051;SDS011;2040;50.924;11.604;2023-04-12T12:45:12;0.90;;;0.90;;
4051;SDS011;2040;50.924;11.604;2023-04-12T12:47:45;0.80;;;0.80;;
4051;SDS011;2040;50.924;11.604;2023-04-12T12:50:16;2.00;;;0.77;;
4051;SDS011;2040;50.924;11.604;2023-04-12T12:52:45;0.70;;;0.70;;
4051;SDS011;2040;50.924;11.604;2023-04-12T12:55:12;2.10;;;1.00;;
4051;SDS011;2040;50.924;11.604;2023-04-12T12:57:38;1.23;;;1.13;;
4051;SDS011;2040;50.924;11.604;2023-04-12T13:00:04;2.57;;;0.90;;
4051;SDS011;2040;50.924;11.604;2023-04-12T13:02:30;1.10;;;0.80;;
4051;SDS011;2040;50.924;11.604;2023-04-12T13:04:55;1.10;;;0.90;;
4051;SDS011;2040;50.924;11.604;2023-04-12T13:07:21;0.93;;;0.83;;
4051;SDS011;2040;50.924;11.604;2023-04-12T13:09:47;1.83;;;0.90;;
4051;SDS011;2040;50.924;11.604;2023-04-12T13:12:13;1.33;;;0.90;;
4051;SDS011;2040;50.924;11.604;2023-04-12T13:14:42;1.20;;;0.80;;
4051;SDS011;2040;50.924;11.604;2023-04-12T13:17:08;1.03;;;0.93;;
4051;SDS011;2040;50.924;11.604;2023-04-12T13:19:34;1.53;;;0.80;;
4051;SDS011;2040;50.924;11.604;2023-04-12T13:21:59;2.10;;;0.90;;
4051;SDS011;2040;50.924;11.604;2023-04-12T13:24:25;1.27;;;0.80;;
4051;SDS011;2040;50.924;11.604;2023-04-12T13:26:50;1.17;;;1.07;;
4051;SDS011;2040;50.924;11.604;2023-04-12T13:29:16;1.33;;;0.93;;
4051;SDS011;2040;50.924;11.604;2023-04-12T13:31:42;1.93;;;0.80;;
4051;SDS011;2040;50.924;11.604;2023-04-12T13:34:07;0.80;;;0.80;;
4051;SDS011;2040;50.924;11.604;2023-04-12T13:36:33;1.70;;;1.27;;
4051;SDS011;2040;50.924;11.604;2023-04-12T13:38:58;1.03;;;0.80;;
4051;SDS011;2040;50.924;11.604;2023-04-12T13:41:24;1.40;;;1.07;;
4051;SDS011;2040;50.924;11.604;2023-04-12T13:43:49;1.33;;;1.13;;
4051;SDS011;2040;50.924;11.604;2023-04-12T13:46:15;0.93;;;0.80;;
4051;SDS011;2040;50.924;11.604;2023-04-12T13:48:41;0.80;;;0.80;;
4051;SDS011;2040;50.924;11.604;2023-04-12T13:51:06;0.77;;;0.77;;
4051;SDS011;2040;50.924;11.604;2023-04-12T13:53:33;1.00;;;0.93;;
4051;SDS011;2040;50.924;11.604;2023-04-12T13:55:58;0.87;;;0.87;;
4051;SDS011;2040;50.924;11.604;2023-04-12T13:58:24;1.77;;;1.13;;
4051;SDS011;2040;50.924;11.604;2023-04-12T14:00:49;2.33;;;0.93;;
4051;SDS011;2040;50.924;11.604;2023-04-12T14:03:17;1.63;;;0.70;;
4051;SDS011;2040;50.924;11.604;2023-04-12T14:05:43;1.10;;;0.80;;
4051;SDS011;2040;50.924;11.604;2023-04-12T14:08:09;2.03;;;0.87;;
4051;SDS011;2040;50.924;11.604;2023-04-12T14:10:34;1.20;;;0.80;;
4051;SDS011;2040;50.924;11.604;2023-04-12T14:13:00;0.90;;;0.70;;
4051;SDS011;2040;50.924;11.604;2023-04-12T14:15:25;1.97;;;0.87;;
4051;SDS011;2040;50.924;11.604;2023-04-12T14:17:51;0.93;;;0.83;;
4051;SDS011;2040;50.924;11.604;2023-04-12T14:20:16;0.73;;;0.73;;
4051;SDS011;2040;50.924;11.604;2023-04-12T14:22:43;0.77;;;0.70;;
4051;SDS011;2040;50.924;11.604;2023-04-12T14:25:08;0.70;;;0.70;;
4051;SDS011;2040;50.924;11.604;2023-04-12T14:27:35;2.60;;;0.73;;
4051;SDS011;2040;50.924;11.604;2023-04-12T14:30:01;1.00;;;0.80;;
4051;SDS011;2040;50.924;11.604;2023-04-12T14:32:27;1.20;;;0.80;;
4051;SDS011;2040;50.924;11.604;2023-04-12T14:34:52;0.83;;;0.70;;
4051;SDS011;2040;50.924;11.604;2023-04-12T14:37:18;1.20;;;0.77;;
4051;SDS011;2040;50.924;11.604;2023-04-12T14:39:44;0.70;;;0.60;;
4051;SDS011;2040;50.924;11.604;2023-04-12T14:42:09;1.47;;;0.70;;
4051;SDS011;2040;50.924;11.604;2023-04-12T14:44:35;0.73;;;0.73;;
4051;SDS011;2040;50.924;11.604;2023-04-12T14:47:01;1.03;;;0.70;;
4051;SDS011;2040;50.924;11.604;2023-04-12T14:49:26;0.70;;;0.70;;
4051;SDS011;2040;50.924;11.604;2023-04-12T14:51:54;0.67;;;0.67;;
4051;SDS011;2040;50.924;11.604;2023-04-12T14:54:21;0.87;;;0.87;;
4051;SDS011;2040;50.924;11.604;2023-04-12T14:56:46;0.60;;;0.60;;
4051;SDS011;2040;50.924;11.604;2023-04-12T14:59:12;0.70;;;0.70;;
4051;SDS011;2040;50.924;11.604;2023-04-12T15:01:39;1.03;;;0.70;;
4051;SDS011;2040;50.924;11.604;2023-04-12T15:04:05;0.90;;;0.67;;
4051;SDS011;2040;50.924;11.604;2023-04-12T15:06:31;0.67;;;0.67;;
4051;SDS011;2040;50.924;11.604;2023-04-12T15:09:01;0.70;;;0.70;;
4051;SDS011;2040;50.924;11.604;2023-04-12T15:11:28;0.63;;;0.63;;
4051;SDS011;2040;50.924;11.604;2023-04-12T15:13:54;0.87;;;0.83;;
4051;SDS011;2040;50.924;11.604;2023-04-12T15:16:19;1.00;;;0.97;;
4051;SDS011;2040;50.924;11.604;2023-04-12T15:18:45;0.80;;;0.80;;
4051;SDS011;2040;50.924;11.604;2023-04-12T15:21:11;1.00;;;0.80;;